createdAt,value
2022-10-05T00:01:05.830Z,97025.44
2022-10-05T00:03:32.183Z,97026.50
2022-10-05T00:05:58.534Z,97035.28
2022-10-05T00:08:24.864Z,97032.31
2022-10-05T00:10:51.208Z,97029.59
2022-10-05T00:13:17.553Z,97031.81
2022-10-05T00:15:43.891Z,97027.88
2022-10-05T00:18:10.313Z,97022.78
2022-10-05T00:20:36.652Z,97032.13
2022-10-05T00:23:02.985Z,97025.97
2022-10-05T00:25:29.354Z,97025.72
2022-10-05T00:27:55.759Z,97025.19
2022-10-05T00:30:22.113Z,97027.97
2022-10-05T00:32:48.443Z,97034.59
2022-10-05T00:35:14.805Z,97028.28
2022-10-05T00:37:41.145Z,97029.56
2022-10-05T00:40:07.480Z,97027.56
2022-10-05T00:42:33.829Z,97032.53
2022-10-05T00:45:00.162Z,97026.63
2022-10-05T00:47:26.503Z,97035.38
2022-10-05T00:49:52.840Z,97026.13
2022-10-05T00:52:19.183Z,97034.91
2022-10-05T00:54:45.514Z,97022.94
2022-10-05T00:57:11.848Z,97018.03
2022-10-05T00:59:38.180Z,97031.56
2022-10-05T01:02:04.553Z,97023.97
2022-10-05T01:04:30.930Z,97020.84
2022-10-05T01:06:57.267Z,97026.63
2022-10-05T01:09:23.604Z,97036.19
2022-10-05T01:11:49.942Z,97026.41
2022-10-05T01:14:16.271Z,97030.88
2022-10-05T01:16:42.674Z,97030.81
2022-10-05T01:19:09.157Z,97024.94
2022-10-05T01:21:35.507Z,97021.00
2022-10-05T01:24:01.849Z,97026.75
2022-10-05T01:26:28.190Z,97024.16
2022-10-05T01:28:54.525Z,97023.19
2022-10-05T01:31:20.948Z,97017.44
2022-10-05T01:33:47.322Z,97013.78
2022-10-05T01:36:13.646Z,97014.41
2022-10-05T01:38:39.985Z,97018.84
2022-10-05T01:41:06.330Z,97028.66
2022-10-05T01:43:32.677Z,97018.91
2022-10-05T01:45:59.126Z,97016.97
2022-10-05T01:48:25.505Z,97024.00
2022-10-05T01:50:51.840Z,97030.59
2022-10-05T01:53:18.171Z,97019.31
2022-10-05T01:55:44.497Z,97015.19
2022-10-05T01:58:10.852Z,97012.56
2022-10-05T02:00:37.202Z,97010.72
2022-10-05T02:03:03.526Z,97019.25
2022-10-05T02:05:29.857Z,97018.25
2022-10-05T02:07:56.188Z,97018.25
2022-10-05T02:10:22.525Z,97017.56
2022-10-05T02:12:48.864Z,97008.63
2022-10-05T02:15:15.189Z,97011.34
2022-10-05T02:17:41.518Z,97010.41
2022-10-05T02:20:07.862Z,97009.25
2022-10-05T02:22:34.199Z,97004.59
2022-10-05T02:25:00.540Z,97003.56
2022-10-05T02:27:26.893Z,97014.59
2022-10-05T02:29:53.221Z,96999.56
2022-10-05T02:32:19.562Z,97012.13
2022-10-05T02:34:45.913Z,97008.84
2022-10-05T02:37:12.260Z,97004.16
2022-10-05T02:39:38.607Z,97001.28
2022-10-05T02:42:04.946Z,97007.81
2022-10-05T02:44:31.269Z,97007.97
2022-10-05T02:46:58.037Z,97009.59
2022-10-05T02:49:24.631Z,97014.22
2022-10-05T02:51:50.960Z,97015.06
2022-10-05T02:54:17.299Z,97012.13
2022-10-05T02:56:44.004Z,97019.47
2022-10-05T02:59:10.524Z,97015.84
2022-10-05T03:01:36.958Z,97022.47
2022-10-05T03:04:03.429Z,97007.13
2022-10-05T03:06:29.777Z,97014.09
2022-10-05T03:08:56.124Z,97005.59
2022-10-05T03:11:22.489Z,97012.06
2022-10-05T03:13:48.838Z,97003.28
2022-10-05T03:16:15.226Z,97005.25
2022-10-05T03:18:41.636Z,96999.34
2022-10-05T03:21:07.980Z,96999.34
2022-10-05T03:23:34.348Z,96995.00
2022-10-05T03:26:00.678Z,96993.59
2022-10-05T03:28:27.061Z,96997.94
2022-10-05T03:30:53.473Z,96997.66
2022-10-05T03:33:19.813Z,96997.78
2022-10-05T03:35:46.147Z,96997.25
2022-10-05T03:38:12.472Z,96995.00
2022-10-05T03:40:38.810Z,96989.63
2022-10-05T03:43:05.173Z,96999.59
2022-10-05T03:45:31.501Z,96990.88
2022-10-05T03:48:01.273Z,96985.50
2022-10-05T03:50:28.077Z,96998.88
2022-10-05T03:52:54.423Z,96999.88
2022-10-05T03:55:20.750Z,97002.06
2022-10-05T03:57:47.084Z,97005.13
2022-10-05T04:00:13.424Z,96999.31
2022-10-05T04:02:39.807Z,97001.03
2022-10-05T04:05:06.171Z,97001.03
2022-10-05T04:07:32.513Z,96999.00
2022-10-05T04:09:58.832Z,96998.94
2022-10-05T04:12:25.162Z,97001.44
2022-10-05T04:14:51.562Z,96992.50
2022-10-05T04:17:17.905Z,96997.31
2022-10-05T04:19:44.247Z,96997.66
2022-10-05T04:22:10.581Z,97000.59
2022-10-05T04:24:36.917Z,96998.19
2022-10-05T04:27:03.252Z,97002.09
2022-10-05T04:29:29.585Z,96998.34
2022-10-05T04:31:55.929Z,97007.72
2022-10-05T04:34:22.265Z,97005.44
2022-10-05T04:36:48.872Z,97008.94
2022-10-05T04:39:15.376Z,97004.03
2022-10-05T04:41:41.764Z,97002.91
2022-10-05T04:44:08.088Z,97009.91
2022-10-05T04:46:34.452Z,97004.66
2022-10-05T04:49:00.860Z,97006.25
2022-10-05T04:51:27.196Z,97000.50
2022-10-05T04:53:53.519Z,97006.72
2022-10-05T04:56:19.860Z,96999.84
2022-10-05T04:58:46.185Z,96992.88
2022-10-05T05:01:12.559Z,96999.00
2022-10-05T05:03:38.999Z,97001.25
2022-10-05T05:06:16.977Z,97006.16
2022-10-05T05:08:44.213Z,97008.34
2022-10-05T05:11:15.806Z,97002.75
2022-10-05T05:13:43.150Z,97015.09
2022-10-05T05:16:09.520Z,97010.53
2022-10-05T05:18:35.905Z,97020.94
2022-10-05T05:21:02.244Z,97019.09
2022-10-05T05:23:28.578Z,97018.13
2022-10-05T05:25:54.919Z,97023.59
2022-10-05T05:28:21.330Z,97015.97
2022-10-05T05:30:47.744Z,97017.34
2022-10-05T05:33:14.079Z,97019.91
2022-10-05T05:35:40.431Z,97022.97
2022-10-05T05:38:06.775Z,97022.50
2022-10-05T05:40:33.107Z,97027.34
2022-10-05T05:42:59.461Z,97032.94
2022-10-05T05:45:25.811Z,97036.47
2022-10-05T05:47:52.222Z,97042.31
2022-10-05T05:50:18.620Z,97039.88
2022-10-05T05:52:44.968Z,97038.63
2022-10-05T05:55:11.311Z,97040.25
2022-10-05T05:57:37.649Z,97044.47
2022-10-05T06:00:03.996Z,97044.59
2022-10-05T06:02:30.376Z,97042.53
2022-10-05T06:04:56.761Z,97041.81
2022-10-05T06:07:26.793Z,97039.22
2022-10-05T06:09:55.874Z,97046.88
2022-10-05T06:12:22.205Z,97055.94
2022-10-05T06:14:48.541Z,97046.97
2022-10-05T06:17:14.873Z,97044.56
2022-10-05T06:19:41.224Z,97046.50
2022-10-05T06:22:07.562Z,97048.69
2022-10-05T06:24:33.902Z,97047.66
2022-10-05T06:27:00.237Z,97044.47
2022-10-05T06:29:26.577Z,97052.25
2022-10-05T06:31:57.936Z,97056.94
2022-10-05T06:34:25.163Z,97056.00
2022-10-05T06:36:51.496Z,97053.13
2022-10-05T06:39:17.833Z,97052.78
2022-10-05T06:41:44.166Z,97057.19
2022-10-05T06:44:10.505Z,97059.28
2022-10-05T06:46:36.832Z,97052.03
2022-10-05T06:49:03.168Z,97050.88
2022-10-05T06:51:29.520Z,97056.69
2022-10-05T06:53:55.859Z,97049.75
2022-10-05T06:56:22.192Z,97046.88
2022-10-05T06:58:48.529Z,97052.63
2022-10-05T07:01:14.929Z,97057.69
2022-10-05T07:03:41.308Z,97054.09
2022-10-05T07:06:07.638Z,97060.59
2022-10-05T07:08:33.965Z,97054.81
2022-10-05T07:11:00.314Z,97058.75
2022-10-05T07:13:26.641Z,97057.13
2022-10-05T07:15:52.978Z,97049.16
2022-10-05T07:18:19.313Z,97054.69
2022-10-05T07:20:49.047Z,97058.94
2022-10-05T07:23:15.730Z,97057.97
2022-10-05T07:25:42.063Z,97051.66
2022-10-05T07:28:08.462Z,97052.84
2022-10-05T07:30:34.956Z,97055.06
2022-10-05T07:33:01.327Z,97064.66
2022-10-05T07:35:27.670Z,97067.94
2022-10-05T07:37:54.017Z,97058.16
2022-10-05T07:40:20.361Z,97059.44
2022-10-05T07:42:51.816Z,97062.41
2022-10-05T07:45:18.672Z,97064.16
2022-10-05T07:47:45.020Z,97069.25
2022-10-05T07:50:11.380Z,97068.00
2022-10-05T07:52:37.724Z,97069.38
2022-10-05T07:55:04.070Z,97062.97
2022-10-05T07:57:30.419Z,97059.41
2022-10-05T07:59:56.761Z,97067.91
2022-10-05T08:02:23.241Z,97065.38
2022-10-05T08:04:49.669Z,97070.75
2022-10-05T08:07:16.092Z,97073.13
2022-10-05T08:09:42.460Z,97072.19
2022-10-05T08:12:08.793Z,97075.03
2022-10-05T08:14:35.141Z,97065.41
2022-10-05T08:17:01.463Z,97072.50
2022-10-05T08:19:27.802Z,97065.09
2022-10-05T08:21:54.134Z,97069.88
2022-10-05T08:24:20.541Z,97066.81
2022-10-05T08:26:46.872Z,97077.06
2022-10-05T08:29:13.994Z,97072.75
2022-10-05T08:31:40.590Z,97079.38
2022-10-05T08:34:06.986Z,97073.91
2022-10-05T08:36:33.326Z,97079.69
2022-10-05T08:38:59.669Z,97071.00
2022-10-05T08:41:26.014Z,97072.09
2022-10-05T08:43:52.341Z,97072.31
2022-10-05T08:46:18.716Z,97076.13
2022-10-05T08:48:45.086Z,97074.06
2022-10-05T08:51:11.442Z,97074.06
2022-10-05T08:53:37.773Z,97071.97
2022-10-05T08:56:04.121Z,97079.47
2022-10-05T08:58:30.489Z,97078.97
2022-10-05T09:00:56.820Z,97076.59
2022-10-05T09:03:23.155Z,97089.69
2022-10-05T09:05:49.502Z,97084.88
2022-10-05T09:08:15.832Z,97085.78
2022-10-05T09:10:42.171Z,97088.78
2022-10-05T09:13:08.500Z,97087.78
2022-10-05T09:15:34.932Z,97080.19
2022-10-05T09:18:01.305Z,97080.69
2022-10-05T09:20:27.650Z,97079.84
2022-10-05T09:22:53.996Z,97088.66
2022-10-05T09:25:20.335Z,97080.75
2022-10-05T09:27:46.675Z,97079.25
2022-10-05T09:30:13.013Z,97081.38
2022-10-05T09:32:39.338Z,97079.50
2022-10-05T09:35:05.685Z,97078.69
2022-10-05T09:37:32.035Z,97071.88
2022-10-05T09:40:01.355Z,97084.47
2022-10-05T09:42:28.035Z,97080.63
2022-10-05T09:44:54.376Z,97070.84
2022-10-05T09:47:20.717Z,97072.78
2022-10-05T09:49:47.051Z,97071.63
2022-10-05T09:52:18.603Z,97068.66
2022-10-05T09:54:45.375Z,97063.47
2022-10-05T09:57:11.709Z,97063.81
2022-10-05T09:59:38.045Z,97068.31
2022-10-05T10:02:04.444Z,97065.50
2022-10-05T10:04:30.826Z,97064.13
2022-10-05T10:06:57.165Z,97064.91
2022-10-05T10:09:23.494Z,97073.19
2022-10-05T10:11:50.174Z,97063.94
2022-10-05T10:14:16.640Z,97062.63
2022-10-05T10:16:43.005Z,97053.63
2022-10-05T10:19:09.351Z,97061.03
2022-10-05T10:21:35.690Z,97062.19
2022-10-05T10:24:02.034Z,97064.22
2022-10-05T10:26:28.369Z,97056.56
2022-10-05T10:28:54.701Z,97055.53
2022-10-05T10:31:21.094Z,97050.56
2022-10-05T10:33:47.488Z,97059.03
2022-10-05T10:36:13.825Z,97053.69
2022-10-05T10:38:40.186Z,97055.84
2022-10-05T10:41:06.538Z,97055.06
2022-10-05T10:43:32.891Z,97056.88
2022-10-05T10:45:59.297Z,97054.81
2022-10-05T10:48:25.656Z,97053.00
2022-10-05T10:50:52.006Z,97053.34
2022-10-05T10:53:18.352Z,97054.84
2022-10-05T10:55:44.690Z,97048.88
2022-10-05T10:58:15.735Z,97049.22
2022-10-05T11:00:42.476Z,97048.19
2022-10-05T11:03:08.878Z,97049.63
2022-10-05T11:05:35.325Z,97048.19
2022-10-05T11:08:01.661Z,97053.31
2022-10-05T11:10:28.000Z,97049.63
2022-10-05T11:12:54.341Z,97048.63
2022-10-05T11:15:20.694Z,97045.44
2022-10-05T11:17:47.031Z,97041.97
2022-10-05T11:20:13.361Z,97046.97
2022-10-05T11:22:39.694Z,97042.78
2022-10-05T11:25:06.029Z,97036.97
2022-10-05T11:27:32.367Z,97038.56
2022-10-05T11:29:58.725Z,97035.22
2022-10-05T11:32:26.140Z,97030.09
2022-10-05T11:34:52.474Z,97033.25
2022-10-05T11:37:18.817Z,97029.03
2022-10-05T11:39:45.148Z,97029.28
2022-10-05T11:42:11.467Z,97023.72
2022-10-05T11:44:37.818Z,97021.88
2022-10-05T11:47:04.152Z,97015.22
2022-10-05T11:49:30.477Z,97014.72
2022-10-05T11:51:56.804Z,97009.97
2022-10-05T11:54:23.150Z,97011.56
2022-10-05T11:56:52.263Z,97008.66
2022-10-05T11:59:20.962Z,97008.88
2022-10-05T12:01:47.293Z,97001.19
2022-10-05T12:04:13.703Z,96999.31
2022-10-05T12:06:40.057Z,97008.91
2022-10-05T12:09:06.400Z,96993.75
2022-10-05T12:11:32.744Z,96996.69
2022-10-05T12:13:59.118Z,96993.50
2022-10-05T12:16:25.479Z,96995.09
2022-10-05T12:18:51.885Z,96995.38
2022-10-05T12:21:18.221Z,96981.56
2022-10-05T12:23:44.539Z,96987.13
2022-10-05T12:26:10.856Z,96982.66
2022-10-05T12:28:37.181Z,96975.72
2022-10-05T12:31:03.574Z,96981.31
2022-10-05T12:33:29.930Z,96976.00
2022-10-05T12:35:56.264Z,96971.22
2022-10-05T12:38:22.598Z,96972.28
2022-10-05T12:40:48.936Z,96976.22
2022-10-05T12:43:15.282Z,96966.13
2022-10-05T12:45:41.624Z,96966.94
2022-10-05T12:48:08.028Z,96969.06
2022-10-05T12:50:34.388Z,96966.16
2022-10-05T12:53:00.725Z,96974.38
2022-10-05T12:55:27.199Z,96965.91
2022-10-05T12:57:53.571Z,96967.97
2022-10-05T13:00:23.025Z,96964.25
2022-10-05T13:02:49.639Z,96958.19
2022-10-05T13:05:15.985Z,96955.25
2022-10-05T13:07:42.317Z,96960.50
2022-10-05T13:10:08.661Z,96960.22
2022-10-05T13:12:35.015Z,96956.72
2022-10-05T13:15:01.350Z,96960.44
2022-10-05T13:17:27.680Z,96958.81
2022-10-05T13:19:54.003Z,96962.94
2022-10-05T13:22:20.342Z,96963.91
2022-10-05T13:24:46.677Z,96960.41
2022-10-05T13:27:13.005Z,96962.56
2022-10-05T13:29:39.335Z,96958.28
2022-10-05T13:32:05.668Z,96958.78
2022-10-05T13:34:32.003Z,96963.00
2022-10-05T13:36:58.328Z,96946.66
2022-10-05T13:39:24.666Z,96957.22
2022-10-05T13:41:51.001Z,96949.75
2022-10-05T13:44:17.337Z,96948.13
2022-10-05T13:46:43.685Z,96945.50
2022-10-05T13:49:10.033Z,96948.06
2022-10-05T13:51:36.366Z,96948.31
2022-10-05T13:54:02.699Z,96942.25
2022-10-05T13:56:29.078Z,96952.75
2022-10-05T13:58:55.413Z,96946.88
2022-10-05T14:01:21.749Z,96943.63
2022-10-05T14:03:48.090Z,96950.03
2022-10-05T14:06:14.430Z,96946.28
2022-10-05T14:08:40.789Z,96932.44
2022-10-05T14:11:07.165Z,96944.16
2022-10-05T14:13:33.509Z,96945.72
2022-10-05T14:15:59.927Z,96944.88
2022-10-05T14:18:26.332Z,96939.28
2022-10-05T14:20:52.673Z,96944.00
2022-10-05T14:23:22.598Z,96938.13
2022-10-05T14:25:49.105Z,96947.19
2022-10-05T14:28:15.459Z,96942.44
2022-10-05T14:30:41.813Z,96939.22
2022-10-05T14:33:08.144Z,96941.31
2022-10-05T14:35:34.481Z,96935.97
2022-10-05T14:38:00.826Z,96931.94
2022-10-05T14:40:27.160Z,96946.09
2022-10-05T14:42:53.484Z,96933.84
2022-10-05T14:45:19.803Z,96937.84
2022-10-05T14:47:46.138Z,96931.13
2022-10-05T14:50:12.481Z,96942.84
2022-10-05T14:52:38.835Z,96930.00
2022-10-05T14:55:05.186Z,96937.00
2022-10-05T14:57:31.516Z,96937.25
2022-10-05T14:59:57.853Z,96934.00
2022-10-05T15:02:24.237Z,96930.00
2022-10-05T15:04:50.601Z,96933.56
2022-10-05T15:07:16.930Z,96933.75
2022-10-05T15:09:43.263Z,96935.91
2022-10-05T15:12:09.603Z,96934.75
2022-10-05T15:14:35.947Z,96936.94
2022-10-05T15:17:02.337Z,96937.50
2022-10-05T15:19:28.703Z,96941.47
2022-10-05T15:21:55.041Z,96931.09
2022-10-05T15:24:21.367Z,96932.22
2022-10-05T15:26:47.704Z,96940.09
2022-10-05T15:29:14.036Z,96935.59
2022-10-05T15:31:40.371Z,96938.56
2022-10-05T15:34:06.711Z,96945.78
2022-10-05T15:36:33.040Z,96947.31
2022-10-05T15:39:00.512Z,96948.94
2022-10-05T15:41:27.025Z,96950.97
2022-10-05T15:43:53.373Z,96954.16
2022-10-05T15:46:19.750Z,96951.50
2022-10-05T15:48:46.147Z,96942.53
2022-10-05T15:51:12.484Z,96948.84
2022-10-05T15:53:38.829Z,96949.47
2022-10-05T15:56:05.167Z,96953.81
2022-10-05T15:58:31.515Z,96959.59
2022-10-05T16:00:57.911Z,96955.13
2022-10-05T16:03:24.320Z,96958.59
2022-10-05T16:05:50.659Z,96958.53
2022-10-05T16:08:16.995Z,96963.47
2022-10-05T16:10:43.324Z,96964.84
2022-10-05T16:13:09.658Z,96961.88
2022-10-05T16:15:36.002Z,96963.47
2022-10-05T16:18:02.341Z,96959.25
2022-10-05T16:20:28.682Z,96957.41
2022-10-05T16:22:55.028Z,96962.19
2022-10-05T16:25:21.365Z,96964.00
2022-10-05T16:27:47.707Z,96972.53
2022-10-05T16:30:14.058Z,96961.34
2022-10-05T16:32:40.398Z,96965.38
2022-10-05T16:35:06.743Z,96971.44
2022-10-05T16:37:33.072Z,96976.22
2022-10-05T16:39:59.398Z,96973.03
2022-10-05T16:42:25.731Z,96977.25
2022-10-05T16:44:52.070Z,96980.25
2022-10-05T16:47:18.392Z,96992.72
2022-10-05T16:49:44.726Z,96989.53
2022-10-05T16:52:11.079Z,96984.75
2022-10-05T16:54:37.423Z,96994.31
2022-10-05T16:57:03.762Z,96988.97
2022-10-05T16:59:30.106Z,96988.41
2022-10-05T17:01:56.486Z,96992.19
2022-10-05T17:04:22.898Z,96997.50
2022-10-05T17:06:49.246Z,97000.25
2022-10-05T17:09:15.576Z,97001.59
2022-10-05T17:11:41.919Z,97005.56
2022-10-05T17:14:08.255Z,97022.03
2022-10-05T17:16:34.597Z,97018.84
2022-10-05T17:19:00.941Z,97018.38
2022-10-05T17:21:27.282Z,97017.88
2022-10-05T17:23:53.676Z,97022.13
2022-10-05T17:26:20.042Z,97024.78
2022-10-05T17:28:46.398Z,97031.69
2022-10-05T17:31:12.769Z,97038.03
2022-10-05T17:33:39.192Z,97042.31
2022-10-05T17:36:05.518Z,97048.97
2022-10-05T17:38:31.845Z,97051.38
2022-10-05T17:40:58.182Z,97046.06
2022-10-05T17:43:24.513Z,97049.25
2022-10-05T17:45:50.868Z,97053.53
2022-10-05T17:48:17.254Z,97057.53
2022-10-05T17:50:43.583Z,97059.38
2022-10-05T17:53:09.918Z,97062.56
2022-10-05T17:55:36.265Z,97058.59
2022-10-05T17:58:02.602Z,97062.56
2022-10-05T18:00:28.936Z,97056.75
2022-10-05T18:02:55.304Z,97076.41
2022-10-05T18:05:21.652Z,97076.41
2022-10-05T18:07:47.995Z,97087.53
2022-10-05T18:10:14.327Z,97083.56
2022-10-05T18:12:40.665Z,97086.50
2022-10-05T18:15:07.051Z,97089.16
2022-10-05T18:17:33.386Z,97081.69
2022-10-05T18:19:59.723Z,97090.72
2022-10-05T18:22:26.065Z,97097.38
2022-10-05T18:24:52.415Z,97103.22
2022-10-05T18:27:18.758Z,97103.47
2022-10-05T18:29:45.137Z,97112.25
2022-10-05T18:32:11.486Z,97114.09
2022-10-05T18:34:37.824Z,97119.97
2022-10-05T18:37:04.167Z,97119.41
2022-10-05T18:39:30.505Z,97126.34
2022-10-05T18:41:56.833Z,97115.97
2022-10-05T18:44:23.165Z,97127.38
2022-10-05T18:46:49.596Z,97129.00
2022-10-05T18:49:15.966Z,97131.66
2022-10-05T18:51:42.330Z,97139.59
2022-10-05T18:54:08.657Z,97143.06
2022-10-05T18:56:34.990Z,97149.69
2022-10-05T18:59:01.321Z,97154.50
2022-10-05T19:01:27.768Z,97163.25
2022-10-05T19:03:54.224Z,97169.66
2022-10-05T19:06:20.546Z,97175.75
2022-10-05T19:08:46.897Z,97172.03
2022-10-05T19:11:13.245Z,97174.09
2022-10-05T19:13:39.579Z,97190.31
2022-10-05T19:16:05.968Z,97192.72
2022-10-05T19:18:32.333Z,97190.53
2022-10-05T19:20:58.699Z,97198.38
2022-10-05T19:23:25.427Z,97200.97
2022-10-05T19:25:52.021Z,97197.22
2022-10-05T19:28:18.386Z,97200.38
2022-10-05T19:30:44.748Z,97200.81
2022-10-05T19:33:11.111Z,97206.63
2022-10-05T19:35:37.451Z,97206.63
2022-10-05T19:38:03.816Z,97209.25
2022-10-05T19:40:30.207Z,97218.81
2022-10-05T19:42:56.578Z,97226.66
2022-10-05T19:45:22.920Z,97224.38
2022-10-05T19:47:49.265Z,97218.88
2022-10-05T19:50:15.611Z,97218.31
2022-10-05T19:52:44.230Z,97223.09
2022-10-05T19:55:13.939Z,97217.84
2022-10-05T19:57:40.271Z,97224.22
2022-10-05T20:00:06.623Z,97230.59
2022-10-05T20:02:32.995Z,97236.50
2022-10-05T20:04:59.390Z,97231.19
2022-10-05T20:07:25.733Z,97229.09
2022-10-05T20:09:52.084Z,97229.63
2022-10-05T20:12:18.418Z,97235.13
2022-10-05T20:14:44.757Z,97241.19
2022-10-05T20:17:11.118Z,97254.03
2022-10-05T20:19:37.437Z,97255.66
2022-10-05T20:22:03.768Z,97267.34
2022-10-05T20:24:30.110Z,97268.06
2022-10-05T20:26:56.450Z,97266.69
2022-10-05T20:29:22.792Z,97266.13
2022-10-05T20:31:49.218Z,97273.53
2022-10-05T20:34:15.614Z,97263.97
2022-10-05T20:36:41.951Z,97269.25
2022-10-05T20:39:08.268Z,97272.69
2022-10-05T20:41:34.596Z,97277.69
2022-10-05T20:44:00.929Z,97283.66
2022-10-05T20:46:27.317Z,97285.28
2022-10-05T20:48:53.682Z,97293.25
2022-10-05T20:51:20.014Z,97304.97
2022-10-05T20:53:46.350Z,97303.94
2022-10-05T20:56:12.694Z,97305.44
2022-10-05T20:58:39.039Z,97310.78
2022-10-05T21:01:05.423Z,97314.47
2022-10-05T21:03:31.805Z,97318.47
2022-10-05T21:05:58.147Z,97326.69
2022-10-05T21:08:24.737Z,97320.41
2022-10-05T21:10:51.267Z,97327.72
2022-10-05T21:13:17.606Z,97328.69
2022-10-05T21:15:43.941Z,97335.63
2022-10-05T21:18:10.271Z,97334.34
2022-10-05T21:20:36.617Z,97339.56
2022-10-05T21:23:02.962Z,97339.81
2022-10-05T21:25:29.307Z,97337.88
2022-10-05T21:27:55.644Z,97339.47
2022-10-05T21:30:21.978Z,97342.38
2022-10-05T21:32:48.343Z,97337.31
2022-10-05T21:35:14.753Z,97339.00
2022-10-05T21:37:41.096Z,97343.75
2022-10-05T21:40:07.430Z,97347.94
2022-10-05T21:42:33.790Z,97352.28
2022-10-05T21:45:00.127Z,97347.00
2022-10-05T21:47:26.465Z,97347.50
2022-10-05T21:49:52.788Z,97357.69
2022-10-05T21:52:19.140Z,97362.00
2022-10-05T21:54:45.464Z,97352.56
2022-10-05T21:57:11.796Z,97357.13
2022-10-05T21:59:38.133Z,97356.56
2022-10-05T22:02:04.457Z,97356.59
2022-10-05T22:04:30.811Z,97365.22
2022-10-05T22:06:57.157Z,97360.38
2022-10-05T22:09:23.836Z,97359.75
2022-10-05T22:11:50.171Z,97364.06
2022-10-05T22:14:16.512Z,97367.75
2022-10-05T22:16:42.954Z,97383.91
2022-10-05T22:19:09.345Z,97374.06
2022-10-05T22:21:35.685Z,97380.41
2022-10-05T22:24:02.014Z,97372.69
2022-10-05T22:26:28.357Z,97379.88
2022-10-05T22:28:54.694Z,97381.41
2022-10-05T22:31:21.096Z,97381.84
2022-10-05T22:33:47.534Z,97379.25
2022-10-05T22:36:13.866Z,97373.13
2022-10-05T22:38:40.204Z,97379.25
2022-10-05T22:41:06.565Z,97375.16
2022-10-05T22:43:32.933Z,97380.97
2022-10-05T22:45:59.330Z,97385.97
2022-10-05T22:48:25.996Z,97390.72
2022-10-05T22:50:52.737Z,97396.50
2022-10-05T22:53:19.076Z,97388.56
2022-10-05T22:55:45.412Z,97385.84
2022-10-05T22:58:11.733Z,97390.41
2022-10-05T23:00:57.551Z,97390.91
2022-10-05T23:03:24.386Z,97388.16
2022-10-05T23:05:50.734Z,97396.03
2022-10-05T23:08:17.064Z,97398.22
2022-10-05T23:10:43.399Z,97399.53
2022-10-05T23:13:09.736Z,97400.25
2022-10-05T23:15:36.080Z,97409.25
2022-10-05T23:18:02.414Z,97406.22
2022-10-05T23:20:28.752Z,97403.28
2022-10-05T23:22:55.092Z,97405.81
2022-10-05T23:25:21.434Z,97403.72
2022-10-05T23:27:47.766Z,97408.28
2022-10-05T23:30:14.108Z,97405.63
2022-10-05T23:32:40.441Z,97401.66
2022-10-05T23:35:06.780Z,97412.75
2022-10-05T23:37:33.113Z,97408.09
2022-10-05T23:39:59.446Z,97407.88
2022-10-05T23:42:25.785Z,97403.03
2022-10-05T23:44:52.128Z,97402.47
2022-10-05T23:47:18.453Z,97408.28
2022-10-05T23:49:44.811Z,97412.91
2022-10-05T23:52:11.149Z,97429.94
2022-10-05T23:54:37.493Z,97419.84
2022-10-05T23:57:03.847Z,97415.66
2022-10-05T23:59:30.176Z,97420.44
